Time;durP1;ratioP1;P1;durP2;ratioP2;P2;SDS_P1;SDS_P2;PMS_P1;PMS_P2;Temp;Humidity;BMP_temperature;BMP_pressure;BME280_temperature;BME280_humidity;BME280_pressure;Samples;Min_cycle;Max_cycle;Signal;HPM_P1;HPM_P2
2023/08/07 00:00:27;;;;;;;12.77;5.63;;;13.00;99.90;;;;;;5032494;28;20182;-73
2023/08/07 00:02:53;;;;;;;14.97;5.53;;;13.00;99.90;;;;;;5032257;28;20263;-72
2023/08/07 00:05:18;;;;;;;7.40;5.40;;;12.90;99.90;;;;;;5031886;28;20281;-72
2023/08/07 00:07:44;;;;;;;13.63;6.60;;;12.90;99.90;;;;;;5031121;28;20183;-72
2023/08/07 00:10:10;;;;;;;7.93;5.37;;;13.00;99.90;;;;;;5032303;28;20225;-71
2023/08/07 00:12:36;;;;;;;9.93;5.47;;;13.00;99.90;;;;;;5032012;28;20215;-72
2023/08/07 00:15:05;;;;;;;8.07;5.40;;;13.00;99.90;;;;;;5032179;28;20215;-72
2023/08/07 00:17:31;;;;;;;8.83;5.00;;;12.90;99.90;;;;;;5031122;28;20266;-71
2023/08/07 00:19:57;;;;;;;12.30;5.93;;;12.90;99.90;;;;;;5031995;28;20254;-72
2023/08/07 00:22:23;;;;;;;7.57;5.73;;;12.80;99.90;;;;;;5031879;28;20168;-73
2023/08/07 00:24:48;;;;;;;8.27;6.03;;;12.80;99.90;;;;;;5031223;28;20223;-71
2023/08/07 00:27:14;;;;;;;8.40;6.60;;;12.80;99.90;;;;;;5031859;28;20205;-72
2023/08/07 00:29:40;;;;;;;6.87;5.50;;;12.80;99.90;;;;;;5032157;28;20624;-71
2023/08/07 00:32:06;;;;;;;9.43;5.67;;;12.70;99.90;;;;;;5031520;28;20258;-71
2023/08/07 00:34:31;;;;;;;8.17;5.53;;;12.70;99.90;;;;;;5031705;28;20242;-73
2023/08/07 00:36:57;;;;;;;9.90;5.30;;;12.70;99.90;;;;;;5031731;28;20218;-71
2023/08/07 00:39:23;;;;;;;16.87;6.00;;;12.70;99.90;;;;;;5031288;28;20174;-71
2023/08/07 00:41:49;;;;;;;10.37;5.17;;;12.70;99.90;;;;;;5031338;28;20657;-71
2023/08/07 00:44:14;;;;;;;9.87;5.50;;;12.70;99.90;;;;;;5031528;28;20234;-72
2023/08/07 00:46:41;;;;;;;9.90;5.87;;;12.70;99.90;;;;;;5031998;28;20529;-72
2023/08/07 00:49:09;;;;;;;10.17;5.60;;;12.70;99.90;;;;;;5031700;28;20180;-72
2023/08/07 00:51:36;;;;;;;7.73;6.00;;;12.70;99.90;;;;;;5031225;28;20598;-72
2023/08/07 00:54:03;;;;;;;10.63;6.07;;;12.70;99.90;;;;;;5031622;28;20210;-72
2023/08/07 00:56:30;;;;;;;5.83;5.23;;;12.70;99.90;;;;;;5031627;28;20175;-72
2023/08/07 00:58:56;;;;;;;9.57;5.43;;;12.70;99.90;;;;;;5031598;28;20172;-72
2023/08/07 01:01:22;;;;;;;10.30;5.67;;;12.70;99.90;;;;;;5030959;28;20175;-73
2023/08/07 01:03:48;;;;;;;14.33;5.70;;;12.60;99.90;;;;;;5031524;28;20198;-71
2023/08/07 01:06:14;;;;;;;11.17;5.53;;;12.60;99.90;;;;;;5031445;28;20174;-71
2023/08/07 01:08:40;;;;;;;9.60;5.73;;;12.60;99.90;;;;;;5032082;28;20175;-71
2023/08/07 01:11:23;;;;;;;15.20;6.33;;;12.60;99.90;;;;;;5030131;28;20653;-71
2023/08/07 01:13:58;;;;;;;11.23;5.90;;;12.60;99.90;;;;;;5029630;28;20191;-70
2023/08/07 01:16:34;;;;;;;9.50;6.07;;;12.60;99.90;;;;;;5031178;28;20585;-71
2023/08/07 01:19:03;;;;;;;7.17;6.40;;;12.60;99.90;;;;;;5031538;28;20175;-70
2023/08/07 01:21:28;;;;;;;7.73;5.90;;;12.60;99.90;;;;;;5031023;28;20974;-71
2023/08/07 01:23:54;;;;;;;8.73;6.40;;;12.60;99.90;;;;;;5031273;28;20188;-71
2023/08/07 01:26:21;;;;;;;10.97;5.77;;;12.60;99.90;;;;;;5031536;28;20243;-72
2023/08/07 01:29:12;;;;;;;12.47;6.07;;;12.60;99.90;;;;;;5031285;28;20507;-71
2023/08/07 01:31:40;;;;;;;9.10;5.70;;;12.60;99.90;;;;;;5031000;28;20207;-72
2023/08/07 01:34:08;;;;;;;17.00;6.70;;;12.60;99.90;;;;;;5031173;28;20665;-71
2023/08/07 01:36:34;;;;;;;8.87;5.37;;;12.60;99.90;;;;;;5033836;28;20190;-71
2023/08/07 01:39:02;;;;;;;12.60;6.40;;;12.60;99.90;;;;;;5035316;28;20254;-72
2023/08/07 01:41:28;;;;;;;11.63;5.97;;;12.60;99.90;;;;;;5035036;28;20180;-71
2023/08/07 01:43:54;;;;;;;11.53;5.33;;;12.60;99.90;;;;;;5035029;28;20210;-72
2023/08/07 01:46:20;;;;;;;12.93;5.87;;;12.60;99.90;;;;;;5034229;28;20560;-72
2023/08/07 01:48:46;;;;;;;9.57;5.23;;;12.60;99.90;;;;;;5034985;28;20206;-72
2023/08/07 01:51:12;;;;;;;11.10;5.63;;;12.60;99.90;;;;;;5034748;28;20198;-71
2023/08/07 01:53:37;;;;;;;10.37;6.43;;;12.60;99.90;;;;;;5034756;28;20183;-72
2023/08/07 01:56:03;;;;;;;8.03;4.73;;;12.60;99.90;;;;;;5034876;28;20199;-71
2023/08/07 01:58:28;;;;;;;13.23;5.73;;;12.60;99.90;;;;;;5034790;28;20569;-72
2023/08/07 02:00:54;;;;;;;11.33;5.90;;;12.60;99.90;;;;;;5033603;28;20314;-72
2023/08/07 02:03:20;;;;;;;11.47;5.80;;;12.70;99.90;;;;;;5033757;28;20253;-72
2023/08/07 02:05:46;;;;;;;14.67;5.90;;;12.70;99.90;;;;;;5034881;28;20183;-71
2023/08/07 02:08:12;;;;;;;15.80;6.40;;;12.70;99.90;;;;;;5034913;28;20295;-72
2023/08/07 02:10:37;;;;;;;7.63;6.03;;;12.70;99.90;;;;;;5034333;28;20263;-72
2023/08/07 02:13:03;;;;;;;11.83;6.13;;;12.70;99.90;;;;;;5031828;28;20179;-73
2023/08/07 02:15:29;;;;;;;9.53;5.87;;;12.70;99.90;;;;;;5031747;28;20215;-73
2023/08/07 02:17:54;;;;;;;10.97;5.63;;;12.70;99.90;;;;;;5033323;28;20694;-72
2023/08/07 02:20:20;;;;;;;13.00;5.80;;;12.70;99.90;;;;;;5033547;28;20174;-74
2023/08/07 02:22:45;;;;;;;16.30;6.63;;;12.60;99.90;;;;;;5034568;28;20639;-73
2023/08/07 02:25:11;;;;;;;9.13;5.47;;;12.60;99.90;;;;;;5034068;28;20253;-72
2023/08/07 02:27:36;;;;;;;6.30;5.33;;;12.50;99.90;;;;;;5034322;28;20175;-74
2023/08/07 02:30:03;;;;;;;7.43;5.73;;;12.50;99.90;;;;;;5033085;28;20176;-73
2023/08/07 02:32:29;;;;;;;13.83;6.87;;;12.50;99.90;;;;;;5033976;28;20587;-75
2023/08/07 02:34:55;;;;;;;6.30;5.70;;;12.50;99.90;;;;;;5033525;28;20199;-74
2023/08/07 02:37:21;;;;;;;13.57;5.77;;;12.50;99.90;;;;;;5033583;28;20684;-73
2023/08/07 02:39:46;;;;;;;9.90;5.60;;;12.40;99.90;;;;;;5032830;28;20171;-75
2023/08/07 02:42:12;;;;;;;10.50;5.07;;;12.40;99.90;;;;;;5033470;28;20175;-74
2023/08/07 02:44:38;;;;;;;10.10;5.90;;;12.40;99.90;;;;;;5033963;28;20222;-75
2023/08/07 02:47:03;;;;;;;9.97;5.53;;;12.40;99.90;;;;;;5033230;28;20282;-75
2023/08/07 02:49:29;;;;;;;7.40;5.77;;;12.40;99.90;;;;;;5033356;28;20183;-75
2023/08/07 02:51:55;;;;;;;10.13;5.53;;;12.40;99.90;;;;;;5033478;28;20186;-74
2023/08/07 02:54:20;;;;;;;13.90;5.80;;;12.40;99.90;;;;;;5033559;28;20207;-74
2023/08/07 02:56:46;;;;;;;7.53;5.47;;;12.40;99.90;;;;;;5033806;28;20172;-74
2023/08/07 02:59:11;;;;;;;9.03;6.27;;;12.40;99.90;;;;;;5033688;28;20206;-75
2023/08/07 03:01:37;;;;;;;11.03;6.27;;;12.40;99.90;;;;;;5031969;28;20242;-76
2023/08/07 03:04:03;;;;;;;11.93;5.70;;;12.40;99.90;;;;;;5033637;28;20195;-75
2023/08/07 03:06:28;;;;;;;11.73;6.30;;;12.40;99.90;;;;;;5033713;28;20234;-75
2023/08/07 03:08:55;;;;;;;13.37;6.30;;;12.40;99.90;;;;;;5033948;28;20168;-74
2023/08/07 03:11:20;;;;;;;12.50;6.17;;;12.40;99.90;;;;;;5031947;28;20258;-75
2023/08/07 03:13:46;;;;;;;11.43;5.80;;;12.30;99.90;;;;;;5032242;28;20613;-75
2023/08/07 03:16:12;;;;;;;11.77;6.03;;;12.30;99.90;;;;;;5033455;28;20278;-75
2023/08/07 03:18:37;;;;;;;25.17;6.33;;;12.30;99.90;;;;;;5033046;28;20233;-75
2023/08/07 03:21:03;;;;;;;8.50;5.90;;;12.30;99.90;;;;;;5032421;28;20229;-75
2023/08/07 03:23:29;;;;;;;10.53;6.07;;;12.30;99.90;;;;;;5032761;28;20191;-73
2023/08/07 03:26:08;;;;;;;10.17;6.40;;;12.30;99.90;;;;;;5032929;28;20167;-74
2023/08/07 03:28:34;;;;;;;12.30;6.13;;;12.30;99.90;;;;;;5032903;28;20176;-75
2023/08/07 03:31:00;;;;;;;13.73;6.53;;;12.30;99.90;;;;;;5033191;28;20179;-74
2023/08/07 03:33:26;;;;;;;11.73;6.63;;;12.30;99.90;;;;;;5032382;28;20188;-74
2023/08/07 03:35:52;;;;;;;9.50;5.90;;;12.30;99.90;;;;;;5031658;28;20211;-75
2023/08/07 03:38:18;;;;;;;15.83;7.33;;;12.30;99.90;;;;;;5032866;28;20175;-76
2023/08/07 03:40:43;;;;;;;13.17;5.73;;;12.30;99.90;;;;;;5032953;28;20164;-74
2023/08/07 03:43:09;;;;;;;12.17;6.93;;;12.30;99.90;;;;;;5032281;28;20183;-74
2023/08/07 03:45:35;;;;;;;13.23;7.20;;;12.30;99.90;;;;;;5032698;28;20184;-74
2023/08/07 03:48:00;;;;;;;10.97;6.13;;;12.30;99.90;;;;;;5033116;28;20294;-74
2023/08/07 03:50:26;;;;;;;8.73;6.13;;;12.30;99.90;;;;;;5031415;28;20179;-75
2023/08/07 03:52:52;;;;;;;13.70;6.23;;;12.30;99.90;;;;;;5032455;28;20534;-75
2023/08/07 03:55:18;;;;;;;12.27;6.23;;;12.30;99.90;;;;;;5031094;28;20207;-73
2023/08/07 03:57:44;;;;;;;11.17;6.13;;;12.30;99.90;;;;;;5032797;28;20172;-74
2023/08/07 04:00:10;;;;;;;13.10;6.20;;;12.30;99.90;;;;;;5030882;28;20656;-74
2023/08/07 04:02:35;;;;;;;5.93;5.43;;;12.30;99.90;;;;;;5032320;28;20644;-74
2023/08/07 04:05:01;;;;;;;17.60;6.77;;;12.30;99.90;;;;;;5032503;28;20290;-73
2023/08/07 04:07:26;;;;;;;14.03;7.17;;;12.30;99.90;;;;;;5031959;28;20186;-73
2023/08/07 04:09:52;;;;;;;10.33;5.93;;;12.30;99.90;;;;;;5032627;28;20640;-75
2023/08/07 04:12:18;;;;;;;9.87;6.57;;;12.30;99.90;;;;;;5031021;28;20208;-74
2023/08/07 04:14:43;;;;;;;9.10;6.03;;;12.30;99.90;;;;;;5031990;28;20222;-73
2023/08/07 04:17:09;;;;;;;10.53;6.27;;;12.40;99.90;;;;;;5032045;28;20180;-73
2023/08/07 04:19:34;;;;;;;10.70;6.37;;;12.30;99.90;;;;;;5030608;28;20183;-75
2023/08/07 04:22:00;;;;;;;9.67;6.50;;;12.30;99.90;;;;;;5031794;28;20182;-73
2023/08/07 04:24:26;;;;;;;11.03;6.60;;;12.30;99.90;;;;;;5032043;28;20202;-74
2023/08/07 04:26:51;;;;;;;11.90;7.63;;;12.30;99.90;;;;;;5031899;28;20637;-73
2023/08/07 04:29:17;;;;;;;10.17;7.20;;;12.30;99.90;;;;;;5031643;28;20191;-74
2023/08/07 04:31:42;;;;;;;12.07;8.00;;;12.30;99.90;;;;;;5030986;28;20184;-74
2023/08/07 04:34:08;;;;;;;11.57;6.87;;;12.30;99.90;;;;;;5030361;28;20257;-72
2023/08/07 04:36:35;;;;;;;11.07;6.33;;;12.40;99.90;;;;;;5203910;23;20238;-88
2023/08/07 04:39:02;;;;;;;13.83;6.33;;;12.40;99.90;;;;;;5065741;28;20537;-88
2023/08/07 04:41:27;;;;;;;9.87;6.73;;;12.40;99.90;;;;;;5032389;28;20255;-88
2023/08/07 04:43:53;;;;;;;13.50;7.20;;;12.40;99.90;;;;;;5033388;28;20192;-88
2023/08/07 04:46:20;;;;;;;11.50;6.20;;;12.40;99.90;;;;;;5036289;28;20295;-88
2023/08/07 04:48:45;;;;;;;9.67;6.40;;;12.40;99.90;;;;;;5032236;28;20187;-88
2023/08/07 04:51:11;;;;;;;7.63;6.20;;;12.40;99.90;;;;;;5031888;28;20189;-88
2023/08/07 04:53:37;;;;;;;8.50;6.27;;;12.40;99.90;;;;;;5031896;28;20211;-88
2023/08/07 04:56:02;;;;;;;10.40;5.87;;;12.40;99.90;;;;;;5031975;28;20207;-88
2023/08/07 04:58:28;;;;;;;10.67;6.70;;;12.50;99.90;;;;;;5032006;28;20214;-89
2023/08/07 05:00:58;;;;;;;12.33;6.03;;;12.50;99.90;;;;;;5031400;28;20286;-89
2023/08/07 05:03:24;;;;;;;8.80;6.20;;;12.50;99.90;;;;;;5031154;28;20207;-88
2023/08/07 05:05:50;;;;;;;16.50;6.23;;;12.50;99.90;;;;;;5031737;28;20172;-88
2023/08/07 05:08:17;;;;;;;11.63;5.87;;;12.50;99.90;;;;;;5033319;28;20187;-88
2023/08/07 05:10:42;;;;;;;15.00;6.93;;;12.50;99.90;;;;;;5031098;28;20191;-87
2023/08/07 05:13:08;;;;;;;8.07;5.50;;;12.50;99.90;;;;;;5030854;28;20649;-88
2023/08/07 05:15:34;;;;;;;14.30;6.87;;;12.50;99.90;;;;;;5031134;28;20203;-89
2023/08/07 05:18:00;;;;;;;11.63;6.40;;;12.50;99.90;;;;;;5032647;28;20259;-90
2023/08/07 05:20:32;;;;;;;9.83;7.00;;;12.50;99.90;;;;;;5031632;28;20203;-90
2023/08/07 05:23:05;;;;;;;13.43;6.63;;;12.60;99.90;;;;;;5032576;28;20555;-92
2023/08/07 05:25:34;;;;;;;6.63;6.00;;;12.60;99.90;;;;;;5031094;28;20317;-89
2023/08/07 05:28:00;;;;;;;14.40;6.27;;;12.60;99.90;;;;;;5033405;28;20183;-89
2023/08/07 05:30:25;;;;;;;9.90;6.03;;;12.70;99.90;;;;;;5038442;28;20199;-88
2023/08/07 05:32:51;;;;;;;11.80;6.23;;;12.70;99.90;;;;;;5031232;28;20171;-88
2023/08/07 05:35:17;;;;;;;6.13;5.53;;;12.70;99.90;;;;;;5031586;28;20214;-88
2023/08/07 05:37:42;;;;;;;10.10;5.67;;;12.80;99.90;;;;;;5030941;28;20187;-88
2023/08/07 05:40:09;;;;;;;12.17;6.20;;;12.80;99.90;;;;;;5032077;28;20194;-89
2023/08/07 05:42:35;;;;;;;5.70;5.10;;;12.80;99.90;;;;;;5032662;28;20545;-89
2023/08/07 05:45:00;;;;;;;9.93;5.83;;;12.80;99.90;;;;;;5031974;28;20243;-88
2023/08/07 05:47:26;;;;;;;8.93;6.00;;;12.90;99.90;;;;;;5031640;28;20554;-88
2023/08/07 05:49:52;;;;;;;7.23;5.23;;;12.90;99.90;;;;;;5032828;28;20665;-88
2023/08/07 05:52:18;;;;;;;8.27;5.30;;;12.90;99.90;;;;;;5036167;28;20172;-89
2023/08/07 05:54:43;;;;;;;9.60;5.77;;;12.90;99.90;;;;;;5033094;28;20289;-88
2023/08/07 05:57:09;;;;;;;8.93;5.97;;;12.90;99.90;;;;;;5032113;28;20179;-88
2023/08/07 05:59:35;;;;;;;10.57;5.60;;;12.90;99.90;;;;;;5032050;28;20192;-88
2023/08/07 06:02:02;;;;;;;9.40;5.10;;;12.90;99.90;;;;;;5032625;28;20203;-89
2023/08/07 06:04:28;;;;;;;14.83;5.53;;;12.90;99.90;;;;;;5031674;28;20183;-88
2023/08/07 06:06:53;;;;;;;11.47;5.30;;;12.80;99.90;;;;;;5031839;28;20708;-88
2023/08/07 06:09:21;;;;;;;11.63;5.60;;;12.80;99.90;;;;;;5031859;28;20199;-88
2023/08/07 06:11:47;;;;;;;10.60;5.40;;;12.80;99.90;;;;;;5031983;28;20184;-88
2023/08/07 06:14:13;;;;;;;9.20;5.47;;;12.80;99.90;;;;;;5039417;28;20187;-88
2023/08/07 06:16:38;;;;;;;7.77;6.03;;;12.70;99.90;;;;;;5032005;28;20664;-88
2023/08/07 06:19:04;;;;;;;7.70;5.23;;;12.70;99.90;;;;;;5031337;28;20274;-88
2023/08/07 06:21:30;;;;;;;8.83;6.03;;;12.80;99.90;;;;;;5031609;28;20172;-88
2023/08/07 06:23:56;;;;;;;9.33;5.57;;;12.80;99.90;;;;;;5036658;28;20191;-88
2023/08/07 06:26:22;;;;;;;7.93;5.40;;;12.70;99.90;;;;;;5038720;28;20175;-88
2023/08/07 06:28:48;;;;;;;7.33;5.73;;;12.70;99.90;;;;;;5037554;28;20186;-88
2023/08/07 06:31:16;;;;;;;8.70;5.43;;;12.70;99.90;;;;;;5037934;28;20206;-89
2023/08/07 06:33:41;;;;;;;6.87;5.20;;;12.70;99.90;;;;;;5039288;28;20179;-87
2023/08/07 06:36:10;;;;;;;8.87;5.33;;;12.60;99.90;;;;;;5040417;28;20207;-88
2023/08/07 06:38:36;;;;;;;8.27;5.40;;;12.60;99.90;;;;;;5041022;28;20596;-88
2023/08/07 06:41:02;;;;;;;13.13;5.87;;;12.60;99.90;;;;;;5040095;28;20225;-88
2023/08/07 06:43:28;;;;;;;9.47;5.43;;;12.60;99.90;;;;;;5041995;28;20175;-87
2023/08/07 06:45:56;;;;;;;7.87;5.47;;;12.60;99.90;;;;;;5041960;28;20191;-89
2023/08/07 06:48:22;;;;;;;7.60;5.83;;;12.60;99.90;;;;;;5041417;28;20186;-88
2023/08/07 06:50:49;;;;;;;5.33;4.87;;;12.60;99.90;;;;;;5040508;28;20263;-88
2023/08/07 06:53:14;;;;;;;10.60;5.70;;;12.60;99.90;;;;;;5028776;28;20237;-88
2023/08/07 06:55:44;;;;;;;6.13;5.53;;;12.60;99.90;;;;;;5042252;28;20203;-88
2023/08/07 06:58:10;;;;;;;6.57;5.27;;;12.60;99.90;;;;;;5041351;28;20176;-88
2023/08/07 07:00:36;;;;;;;7.63;5.40;;;12.60;99.90;;;;;;5045630;28;20199;-89
2023/08/07 07:03:04;;;;;;;8.13;5.30;;;12.60;99.90;;;;;;5040654;28;20175;-88
2023/08/07 07:05:30;;;;;;;11.30;5.57;;;12.60;99.90;;;;;;5042072;28;20175;-88
2023/08/07 07:07:57;;;;;;;6.50;5.10;;;12.70;99.90;;;;;;5042507;28;20179;-88
2023/08/07 07:10:23;;;;;;;8.60;5.90;;;12.60;99.90;;;;;;5040370;28;20765;-87
2023/08/07 07:12:48;;;;;;;11.00;6.53;;;12.60;99.90;;;;;;5040604;28;20186;-88
2023/08/07 07:15:14;;;;;;;6.20;5.50;;;12.60;99.90;;;;;;5039787;28;20293;-88
2023/08/07 07:17:40;;;;;;;5.33;4.83;;;12.70;99.90;;;;;;5043502;28;20408;-88
2023/08/07 07:20:09;;;;;;;11.20;5.47;;;12.70;99.90;;;;;;5048834;28;20190;-90
2023/08/07 07:22:35;;;;;;;8.77;5.60;;;12.80;99.90;;;;;;5044827;28;20151;-89
2023/08/07 07:25:00;;;;;;;9.30;5.43;;;12.90;99.90;;;;;;5051272;28;20442;-89
2023/08/07 07:27:26;;;;;;;11.63;6.30;;;12.80;99.90;;;;;;5034558;28;20191;-89
2023/08/07 07:29:52;;;;;;;6.13;5.47;;;12.80;99.90;;;;;;5047500;28;20195;-89
2023/08/07 07:32:18;;;;;;;10.03;5.87;;;12.80;99.90;;;;;;5040967;28;20182;-90
2023/08/07 07:34:44;;;;;;;13.10;6.30;;;12.80;99.90;;;;;;5038685;28;20692;-89
2023/08/07 07:37:14;;;;;;;11.60;5.87;;;12.90;99.90;;;;;;5040013;28;20188;-87
2023/08/07 07:39:42;;;;;;;9.90;6.43;;;12.90;99.90;;;;;;5043488;28;20195;-91
2023/08/07 07:42:29;;;;;;;11.40;5.83;;;12.90;99.90;;;;;;5023650;28;20203;-92
2023/08/07 07:44:55;;;;;;;8.10;5.33;;;13.00;99.90;;;;;;5041940;28;20203;-89
2023/08/07 07:47:21;;;;;;;16.03;5.77;;;13.00;99.90;;;;;;5038628;28;20266;-89
2023/08/07 07:49:47;;;;;;;8.90;5.80;;;13.00;99.90;;;;;;5038249;28;20195;-90
2023/08/07 07:52:13;;;;;;;8.33;6.17;;;13.00;99.90;;;;;;5037945;28;20282;-90
2023/08/07 07:54:39;;;;;;;9.80;6.33;;;13.00;99.90;;;;;;5037562;28;20199;-89
2023/08/07 07:57:09;;;;;;;10.67;5.87;;;13.10;99.90;;;;;;5038506;28;20168;-91
2023/08/07 07:59:35;;;;;;;6.50;5.40;;;13.10;99.90;;;;;;5038967;28;20191;-89
2023/08/07 08:02:01;;;;;;;9.27;5.60;;;13.20;99.90;;;;;;5039658;28;20203;-89
2023/08/07 08:04:27;;;;;;;10.70;6.43;;;13.30;99.90;;;;;;5039154;28;20179;-90
2023/08/07 08:06:53;;;;;;;10.27;5.40;;;13.30;99.90;;;;;;5037204;28;20171;-89
2023/08/07 08:09:19;;;;;;;13.70;5.63;;;13.40;99.90;;;;;;5037576;28;20191;-90
2023/08/07 08:11:44;;;;;;;11.83;5.60;;;13.50;99.90;;;;;;5034888;28;20192;-89
2023/08/07 08:14:10;;;;;;;10.93;5.43;;;13.50;99.90;;;;;;5014022;28;20197;-90
2023/08/07 08:16:35;;;;;;;10.47;6.13;;;13.60;99.90;;;;;;5031508;28;20172;-89
2023/08/07 08:19:02;;;;;;;9.83;5.17;;;13.60;99.90;;;;;;5038063;28;20241;-90
2023/08/07 08:21:31;;;;;;;11.10;5.80;;;13.60;99.90;;;;;;5038571;28;20266;-89
2023/08/07 08:23:56;;;;;;;9.93;5.43;;;13.60;99.90;;;;;;5043244;28;20164;-90
2023/08/07 08:26:22;;;;;;;7.40;5.00;;;13.60;99.90;;;;;;5041912;28;20267;-89
2023/08/07 08:28:48;;;;;;;12.30;4.90;;;13.60;99.90;;;;;;5049590;28;20174;-89
2023/08/07 08:31:13;;;;;;;13.63;5.93;;;13.60;99.90;;;;;;5042892;28;20183;-87
2023/08/07 08:33:40;;;;;;;9.47;4.80;;;13.60;99.90;;;;;;5041536;28;20179;-90
2023/08/07 08:36:05;;;;;;;11.10;5.37;;;13.60;99.90;;;;;;5035519;28;20207;-89
2023/08/07 08:38:33;;;;;;;7.67;4.77;;;13.60;99.90;;;;;;5036036;28;20230;-89
2023/08/07 08:41:03;;;;;;;10.70;5.23;;;13.70;99.90;;;;;;5035795;28;20226;-90
2023/08/07 08:43:34;;;;;;;9.40;5.17;;;13.80;99.90;;;;;;5035076;28;20175;-90
2023/08/07 08:46:01;;;;;;;7.27;5.17;;;13.90;99.90;;;;;;5038018;28;20206;-91
2023/08/07 08:48:38;;;;;;;8.43;5.30;;;13.90;99.90;;;;;;5035698;28;20172;-91
2023/08/07 08:51:05;;;;;;;7.87;6.30;;;14.10;99.90;;;;;;5035697;28;20195;-88
2023/08/07 08:53:33;;;;;;;6.70;4.73;;;14.20;99.90;;;;;;5034253;28;20714;-88
2023/08/07 08:56:01;;;;;;;7.90;5.43;;;14.30;99.90;;;;;;5034674;28;20283;-88
2023/08/07 08:58:28;;;;;;;8.07;6.63;;;14.50;99.90;;;;;;5035290;28;20179;-89
2023/08/07 09:00:53;;;;;;;5.90;4.90;;;14.60;99.90;;;;;;5034758;28;20187;-89
2023/08/07 09:03:19;;;;;;;5.13;4.63;;;14.90;99.90;;;;;;5035914;28;20172;-89
2023/08/07 09:05:47;;;;;;;8.93;4.50;;;15.00;99.90;;;;;;5036070;28;20175;-87
2023/08/07 09:08:13;;;;;;;4.77;4.37;;;15.20;99.90;;;;;;5034019;28;20182;-88
2023/08/07 09:10:39;;;;;;;8.03;4.77;;;15.00;99.90;;;;;;5035083;28;20199;-87
2023/08/07 09:13:11;;;;;;;5.10;4.60;;;15.00;99.90;;;;;;5037880;28;20183;-88
2023/08/07 09:15:39;;;;;;;8.27;4.37;;;15.00;99.90;;;;;;5038306;28;20207;-88
2023/08/07 09:18:10;;;;;;;5.77;5.27;;;15.10;99.90;;;;;;5037426;28;20522;-88
2023/08/07 09:20:39;;;;;;;9.03;4.40;;;15.30;99.90;;;;;;5037389;28;20202;-89
2023/08/07 09:23:05;;;;;;;3.97;3.57;;;15.40;99.90;;;;;;5035036;28;20215;-89
2023/08/07 09:25:32;;;;;;;9.23;3.80;;;15.60;99.90;;;;;;5035363;28;20272;-88
2023/08/07 09:28:01;;;;;;;4.07;3.67;;;15.80;99.90;;;;;;5034711;28;20563;-89
2023/08/07 09:30:28;;;;;;;9.47;3.47;;;15.90;99.90;;;;;;5035016;28;20199;-87
2023/08/07 09:32:56;;;;;;;5.37;3.50;;;16.10;99.90;;;;;;5036533;28;20276;-88
2023/08/07 09:35:22;;;;;;;4.37;3.70;;;16.10;99.90;;;;;;5037145;28;20306;-88
2023/08/07 09:37:48;;;;;;;4.90;3.53;;;16.10;99.90;;;;;;5038098;28;20191;-89
2023/08/07 09:40:15;;;;;;;5.13;3.33;;;16.10;99.90;;;;;;5039051;28;20187;-89
2023/08/07 09:42:41;;;;;;;5.63;3.47;;;16.10;99.90;;;;;;5037070;28;20179;-90
2023/08/07 09:45:29;;;;;;;4.60;3.33;;;16.20;99.90;;;;;;5037980;28;20190;-89
2023/08/07 09:48:02;;;;;;;5.23;3.17;;;16.50;99.90;;;;;;5038969;28;20268;-88
2023/08/07 09:50:29;;;;;;;4.10;3.53;;;16.70;99.90;;;;;;5039417;28;20288;-89
2023/08/07 09:52:57;;;;;;;5.77;3.47;;;16.70;99.90;;;;;;5041487;28;20221;-89
2023/08/07 09:55:24;;;;;;;5.70;3.10;;;17.00;99.90;;;;;;5040612;28;20230;-88
2023/08/07 09:57:50;;;;;;;4.30;2.73;;;17.20;99.90;;;;;;5046334;28;20175;-89
2023/08/07 10:00:16;;;;;;;6.40;3.43;;;17.40;99.90;;;;;;5039152;28;20701;-88
2023/08/07 10:02:42;;;;;;;5.57;3.00;;;17.40;99.90;;;;;;5034616;28;20186;-89
2023/08/07 10:05:12;;;;;;;6.10;3.50;;;17.50;99.90;;;;;;5034938;28;20179;-91
2023/08/07 10:07:40;;;;;;;6.97;3.80;;;17.70;99.90;;;;;;5035067;28;20266;-88
2023/08/07 10:10:07;;;;;;;8.43;3.50;;;18.00;99.90;;;;;;5035123;28;20218;-88
2023/08/07 10:12:34;;;;;;;6.40;3.97;;;18.10;99.90;;;;;;5034818;28;20262;-90
2023/08/07 10:15:00;;;;;;;6.90;3.40;;;18.10;99.90;;;;;;5036230;28;20705;-89
2023/08/07 10:17:29;;;;;;;8.23;3.57;;;18.40;99.90;;;;;;5034652;28;20229;-90
2023/08/07 10:19:56;;;;;;;3.43;3.00;;;18.70;99.90;;;;;;5043006;23;20270;-71
2023/08/07 10:22:26;;;;;;;8.47;3.27;;;18.70;99.90;;;;;;5014458;28;20250;-70
2023/08/07 10:24:54;;;;;;;4.97;3.10;;;18.90;99.90;;;;;;5013084;28;20291;-72
2023/08/07 10:27:22;;;;;;;8.07;3.20;;;19.10;99.90;;;;;;4995238;28;20183;-70
2023/08/07 10:29:50;;;;;;;4.03;3.73;;;19.50;99.90;;;;;;4995075;28;20169;-71
2023/08/07 10:32:18;;;;;;;6.57;3.47;;;19.60;99.90;;;;;;5217526;22;20256;-72
2023/08/07 10:34:49;;;;;;;4.83;2.87;;;19.40;99.90;;;;;;5014407;28;20683;-71
2023/08/07 10:37:53;;;;;;;5.83;3.00;;;19.60;99.90;;;;;;5014039;28;20235;-73
2023/08/07 10:40:21;;;;;;;6.87;3.60;;;19.70;99.90;;;;;;4953586;29;20475;-73
2023/08/07 10:42:55;;;;;;;5.30;2.87;;;19.70;99.90;;;;;;4991376;28;20205;-71
2023/08/07 10:45:22;;;;;;;6.13;3.20;;;19.60;99.90;;;;;;4994596;28;20180;-72
2023/08/07 10:48:01;;;;;;;3.30;2.97;;;19.50;99.90;;;;;;4994728;28;20235;-73
2023/08/07 10:50:54;;;;;;;4.20;3.20;;;19.40;99.90;;;;;;4994853;28;20169;-72
2023/08/07 10:53:33;;;;;;;3.23;2.80;;;18.90;99.90;;;;;;4967212;28;20588;-70
2023/08/07 10:56:02;;;;;;;4.83;3.10;;;18.60;99.90;;;;;;4973702;28;20212;-71
2023/08/07 10:58:33;;;;;;;6.10;2.93;;;18.70;99.90;;;;;;4975154;28;20181;-70
2023/08/07 11:01:19;;;;;;;4.03;2.80;;;19.00;99.90;;;;;;4991244;28;20177;-72
2023/08/07 11:04:08;;;;;;;4.37;3.50;;;19.10;99.90;;;;;;4994153;28;20248;-72
2023/08/07 11:06:36;;;;;;;2.80;2.60;;;19.20;99.90;;;;;;4988519;28;20266;-71
2023/08/07 11:09:06;;;;;;;8.80;2.93;;;19.40;99.90;;;;;;4993469;28;20664;-69
2023/08/07 11:11:41;;;;;;;4.77;3.67;;;19.70;99.90;;;;;;4993895;28;20165;-69
2023/08/07 11:14:08;;;;;;;3.80;3.43;;;20.00;99.90;;;;;;4994108;28;20660;-70
2023/08/07 11:16:35;;;;;;;6.87;3.50;;;19.70;99.90;;;;;;4994432;28;20765;-69
2023/08/07 11:19:00;;;;;;;3.67;3.20;;;19.60;99.90;;;;;;4993627;28;20205;-69
2023/08/07 11:21:26;;;;;;;6.17;3.20;;;19.70;99.90;;;;;;4993140;28;20204;-71
2023/08/07 11:23:52;;;;;;;3.90;3.17;;;20.00;99.90;;;;;;4993597;28;20176;-70
2023/08/07 11:26:21;;;;;;;4.47;2.93;;;20.10;99.90;;;;;;4993652;28;20209;-71
2023/08/07 11:28:47;;;;;;;6.10;2.70;;;19.90;99.90;;;;;;4994183;28;20176;-72
2023/08/07 11:31:13;;;;;;;4.77;3.07;;;19.90;99.90;;;;;;4993667;28;20534;-73
2023/08/07 11:33:40;;;;;;;3.00;2.70;;;20.20;99.90;;;;;;4993052;28;20223;-71
2023/08/07 11:36:13;;;;;;;4.77;3.43;;;20.30;99.90;;;;;;4994010;28;20212;-72
2023/08/07 11:38:43;;;;;;;3.07;2.80;;;19.70;99.90;;;;;;4993999;28;20187;-70
2023/08/07 11:41:11;;;;;;;6.67;3.10;;;19.80;99.90;;;;;;4992484;28;20272;-71
2023/08/07 11:43:37;;;;;;;3.40;3.10;;;20.00;99.90;;;;;;4993127;28;20192;-71
2023/08/07 11:46:08;;;;;;;7.00;3.97;;;20.40;99.90;;;;;;4993368;28;20195;-71
2023/08/07 11:48:35;;;;;;;4.07;3.07;;;20.50;99.90;;;;;;4992020;28;20181;-70
2023/08/07 11:51:02;;;;;;;4.83;4.33;;;20.50;99.90;;;;;;4993711;28;20684;-73
2023/08/07 11:53:30;;;;;;;5.30;3.30;;;20.30;99.90;;;;;;4992867;28;20188;-71
2023/08/07 11:56:04;;;;;;;4.00;3.60;;;20.40;99.90;;;;;;4993346;28;20259;-71
2023/08/07 11:58:39;;;;;;;4.37;4.07;;;20.50;99.90;;;;;;4993260;28;20254;-71
2023/08/07 12:01:15;;;;;;;5.77;5.27;;;20.40;99.90;;;;;;4991801;28;20646;-72
2023/08/07 12:04:07;;;;;;;5.80;4.70;;;20.50;99.90;;;;;;4993254;28;20176;-72
2023/08/07 12:06:35;;;;;;;3.13;2.83;;;20.80;99.90;;;;;;4993210;28;20179;-71
2023/08/07 12:09:01;;;;;;;5.60;5.03;;;21.10;99.90;;;;;;4993050;28;20168;-69
2023/08/07 12:11:29;;;;;;;3.53;3.10;;;21.40;99.90;;;;;;4992678;28;20730;-69
2023/08/07 12:13:55;;;;;;;6.37;3.40;;;21.60;99.90;;;;;;4992876;28;20172;-70
2023/08/07 12:16:21;;;;;;;4.63;4.13;;;21.60;99.90;;;;;;4992560;28;20208;-71
2023/08/07 12:18:51;;;;;;;5.10;3.20;;;21.80;99.90;;;;;;4992788;28;20172;-72
2023/08/07 12:21:23;;;;;;;4.90;3.83;;;21.70;99.90;;;;;;4992635;28;20169;-72
2023/08/07 12:23:50;;;;;;;7.87;3.70;;;21.70;99.90;;;;;;4992570;28;20592;-71
2023/08/07 12:26:16;;;;;;;5.32;3.22;;;21.40;99.90;;;;;;4992322;28;20240;-71
2023/08/07 12:28:42;;;;;;;3.97;3.30;;;21.40;99.90;;;;;;4992456;28;20650;-70
2023/08/07 12:31:08;;;;;;;3.30;3.00;;;21.40;99.90;;;;;;4992746;28;20179;-70
2023/08/07 12:33:34;;;;;;;3.57;3.00;;;21.40;99.90;;;;;;4992377;28;20291;-70
2023/08/07 12:36:01;;;;;;;3.03;2.73;;;21.20;99.90;;;;;;4992580;28;20204;-71
2023/08/07 12:38:27;;;;;;;4.07;3.15;;;21.20;99.90;;;;;;4992218;28;20204;-70
2023/08/07 12:40:53;;;;;;;4.50;3.17;;;21.00;99.90;;;;;;4992656;28;20184;-71
2023/08/07 12:43:19;;;;;;;5.03;3.17;;;21.00;99.90;;;;;;4992032;28;20193;-70